createdAt,value
2018-04-07T00:01:03.453Z,9.17
2018-04-07T00:03:37.186Z,9.33
2018-04-07T00:06:11.345Z,9.53
2018-04-07T00:08:45.105Z,9.53
2018-04-07T00:11:18.779Z,10.23
2018-04-07T00:13:53.013Z,10.40
2018-04-07T00:16:27.000Z,9.53
2018-04-07T00:19:01.736Z,10.13
2018-04-07T00:21:36.451Z,10.57
2018-04-07T00:24:11.481Z,11.17
2018-04-07T00:26:47.658Z,10.40
2018-04-07T00:29:23.291Z,10.77
2018-04-07T00:31:57.523Z,10.03
2018-04-07T00:34:32.059Z,10.43
2018-04-07T00:37:06.659Z,11.43
2018-04-07T00:39:41.800Z,10.13
2018-04-07T00:42:15.813Z,10.87
2018-04-07T00:44:50.420Z,11.03
2018-04-07T00:47:25.161Z,11.23
2018-04-07T00:49:58.843Z,12.00
2018-04-07T00:52:44.735Z,10.33
2018-04-07T00:55:19.378Z,11.97
2018-04-07T00:57:54.703Z,12.97
2018-04-07T01:00:29.137Z,11.10
2018-04-07T01:03:04.004Z,11.77
2018-04-07T01:05:37.760Z,12.70
2018-04-07T01:08:11.769Z,10.83
2018-04-07T01:10:46.101Z,11.37
2018-04-07T01:13:21.637Z,10.77
2018-04-07T01:15:56.371Z,11.83
2018-04-07T01:18:31.282Z,11.90
2018-04-07T01:21:05.676Z,11.13
2018-04-07T01:23:39.632Z,10.70
2018-04-07T01:26:14.924Z,11.13
2018-04-07T01:28:48.758Z,10.77
2018-04-07T01:31:24.105Z,11.67
2018-04-07T01:33:59.919Z,12.00
2018-04-07T01:36:33.879Z,12.33
2018-04-07T01:39:08.552Z,10.90
2018-04-07T01:41:43.826Z,11.23
2018-04-07T01:44:18.356Z,11.67
2018-04-07T01:46:52.883Z,11.83
2018-04-07T01:49:26.786Z,13.27
2018-04-07T01:52:01.495Z,11.57
2018-04-07T01:54:36.000Z,12.10
2018-04-07T01:57:10.636Z,12.13
2018-04-07T01:59:45.558Z,12.97
2018-04-07T02:02:20.542Z,12.17
2018-04-07T02:04:55.146Z,13.27
2018-04-07T02:07:30.030Z,11.77
2018-04-07T02:10:03.861Z,12.30
2018-04-07T02:12:38.398Z,11.37
2018-04-07T02:15:12.411Z,12.37
2018-04-07T02:17:46.160Z,11.90
2018-04-07T02:20:21.639Z,11.80
2018-04-07T02:22:56.388Z,11.37
2018-04-07T02:25:30.898Z,12.27
2018-04-07T02:28:05.311Z,11.80
2018-04-07T02:30:39.273Z,13.13
2018-04-07T02:33:13.752Z,13.10
2018-04-07T02:35:47.852Z,13.37
2018-04-07T02:38:22.692Z,12.80
2018-04-07T02:40:57.415Z,12.93
2018-04-07T02:43:31.336Z,13.27
2018-04-07T02:46:06.133Z,12.90
2018-04-07T02:48:40.896Z,13.40
2018-04-07T02:51:16.619Z,14.80
2018-04-07T02:53:50.728Z,14.33
2018-04-07T02:56:25.249Z,13.67
2018-04-07T02:58:59.981Z,13.80
2018-04-07T03:01:35.313Z,13.47
2018-04-07T03:04:10.048Z,13.27
2018-04-07T03:06:44.079Z,13.77
2018-04-07T03:09:17.966Z,13.27
2018-04-07T03:11:53.006Z,12.93
2018-04-07T03:14:27.616Z,14.40
2018-04-07T03:17:02.684Z,14.73
2018-04-07T03:19:36.452Z,14.77
2018-04-07T03:22:11.494Z,14.30
2018-04-07T03:24:46.220Z,14.70
2018-04-07T03:27:20.338Z,15.20
2018-04-07T03:29:54.842Z,14.27
2018-04-07T03:32:28.667Z,13.63
2018-04-07T03:35:02.759Z,13.63
2018-04-07T03:37:37.102Z,13.80
2018-04-07T03:40:11.532Z,14.40
2018-04-07T03:42:45.220Z,14.37
2018-04-07T03:45:20.430Z,15.10
2018-04-07T03:47:55.182Z,14.57
2018-04-07T03:50:30.299Z,14.43
2018-04-07T04:06:08.623Z,16.47
2018-04-07T04:08:43.324Z,16.47
2018-04-07T04:11:17.013Z,14.03
2018-04-07T04:13:51.680Z,13.80
2018-04-07T04:16:25.340Z,13.73
2018-04-07T04:18:59.763Z,15.23
2018-04-07T04:21:34.290Z,14.50
2018-04-07T04:24:09.128Z,14.33
2018-04-07T04:26:44.672Z,15.43
2018-04-07T04:29:18.463Z,14.87
2018-04-07T04:31:52.824Z,13.83
2018-04-07T04:34:27.205Z,13.27
2018-04-07T04:37:01.517Z,14.03
2018-04-07T04:39:35.860Z,14.97
2018-04-07T04:42:10.553Z,15.30
2018-04-07T04:44:44.975Z,16.00
2018-04-07T04:47:19.412Z,16.53
2018-04-07T04:49:53.504Z,16.53
2018-04-07T04:52:27.959Z,15.83
2018-04-07T04:55:03.308Z,16.17
2018-04-07T04:57:37.812Z,15.67
2018-04-07T05:00:12.080Z,14.73
2018-04-07T05:02:46.676Z,15.60
2018-04-07T05:05:20.533Z,15.90
2018-04-07T05:07:54.643Z,16.87
2018-04-07T05:10:28.453Z,15.73
2018-04-07T05:13:03.189Z,16.63
2018-04-07T05:15:37.177Z,15.77
2018-04-07T05:18:11.398Z,16.00
2018-04-07T05:20:46.741Z,14.37
2018-04-07T05:23:20.448Z,13.60
2018-04-07T05:25:54.381Z,14.27
2018-04-07T05:28:28.291Z,13.80
2018-04-07T05:31:02.347Z,14.23
2018-04-07T05:33:37.076Z,15.40
2018-04-07T05:36:11.637Z,14.97
2018-04-07T05:38:46.740Z,15.40
2018-04-07T05:41:22.108Z,15.77
2018-04-07T05:43:55.704Z,15.53
2018-04-07T05:46:29.823Z,15.77
2018-04-07T05:49:04.017Z,14.97
2018-04-07T05:51:37.830Z,15.00
2018-04-07T05:54:11.722Z,15.87
2018-04-07T05:56:46.240Z,14.90
2018-04-07T05:59:22.232Z,16.10
2018-04-07T06:01:56.216Z,16.17
2018-04-07T06:04:32.169Z,16.23
2018-04-07T06:07:06.505Z,14.87
2018-04-07T06:09:40.606Z,15.83
2018-04-07T06:12:15.150Z,18.07
2018-04-07T06:14:49.561Z,15.43
2018-04-07T06:17:23.869Z,14.30
2018-04-07T06:19:57.559Z,15.30
2018-04-07T06:22:31.676Z,14.47
2018-04-07T06:25:06.408Z,14.50
2018-04-07T06:27:43.290Z,14.87
2018-04-07T06:30:17.005Z,15.60
2018-04-07T06:32:51.808Z,16.17
2018-04-07T06:35:26.136Z,16.90
2018-04-07T06:38:01.692Z,17.40
2018-04-07T06:40:35.594Z,16.27
2018-04-07T06:43:09.192Z,17.37
2018-04-07T06:45:43.196Z,15.90
2018-04-07T06:48:17.719Z,16.03
2018-04-07T06:50:51.820Z,15.67
2018-04-07T06:53:26.541Z,15.73
2018-04-07T06:56:01.579Z,15.97
2018-04-07T06:58:36.721Z,15.10
2018-04-07T07:01:13.173Z,15.70
2018-04-07T07:03:47.908Z,15.07
2018-04-07T07:06:23.887Z,15.30
2018-04-07T07:08:59.041Z,15.17
2018-04-07T07:11:33.724Z,14.90
2018-04-07T07:14:08.160Z,15.80
2018-04-07T07:16:43.793Z,14.33
2018-04-07T07:19:17.512Z,13.63
2018-04-07T07:21:51.744Z,13.53
2018-04-07T07:24:26.328Z,13.33
2018-04-07T07:27:01.570Z,12.40
2018-04-07T07:29:36.233Z,12.47
2018-04-07T07:32:11.042Z,12.33
2018-04-07T07:34:45.771Z,12.70
2018-04-07T07:37:19.575Z,12.63
2018-04-07T07:39:54.376Z,12.27
2018-04-07T07:42:31.819Z,12.93
2018-04-07T07:45:07.874Z,12.03
2018-04-07T07:47:48.388Z,12.77
2018-04-07T07:50:24.274Z,12.83
2018-04-07T07:52:58.375Z,12.33
2018-04-07T07:55:33.595Z,11.83
2018-04-07T07:58:07.605Z,11.60
2018-04-07T08:00:42.295Z,11.57
2018-04-07T08:03:17.118Z,12.00
2018-04-07T08:05:52.387Z,11.43
2018-04-07T08:08:26.395Z,12.03
2018-04-07T08:11:00.603Z,11.83
2018-04-07T08:13:38.170Z,11.43
2018-04-07T08:16:14.776Z,11.50
2018-04-07T08:18:49.321Z,11.80
2018-04-07T08:21:23.831Z,11.37
2018-04-07T08:23:58.646Z,12.07
2018-04-07T08:26:32.788Z,11.60
2018-04-07T08:29:06.568Z,12.03
2018-04-07T08:31:40.288Z,11.10
2018-04-07T08:34:15.200Z,11.33
2018-04-07T08:36:50.554Z,11.70
2018-04-07T08:39:25.591Z,11.93
2018-04-07T08:42:03.177Z,11.93
2018-04-07T08:44:37.177Z,11.40
2018-04-07T08:47:12.366Z,11.03
2018-04-07T08:49:46.341Z,11.43
2018-04-07T08:52:21.884Z,11.53
2018-04-07T08:54:55.880Z,10.87
2018-04-07T08:57:29.613Z,11.43
2018-04-07T09:00:03.421Z,11.23
2018-04-07T09:02:38.832Z,11.40
2018-04-07T09:05:14.576Z,11.37
2018-04-07T09:07:49.097Z,12.23
2018-04-07T09:10:22.893Z,11.73
2018-04-07T09:12:57.816Z,12.10
2018-04-07T09:15:31.572Z,11.23
2018-04-07T09:18:05.982Z,12.13
2018-04-07T09:20:40.292Z,10.60
2018-04-07T09:23:14.885Z,10.20
2018-04-07T09:25:49.402Z,10.73
2018-04-07T09:28:23.542Z,11.80
2018-04-07T09:31:02.925Z,11.80
2018-04-07T09:33:36.786Z,11.07
2018-04-07T09:36:11.527Z,11.17
2018-04-07T09:38:45.455Z,10.63
2018-04-07T09:41:22.513Z,11.90
2018-04-07T09:43:56.596Z,11.07
2018-04-07T09:46:32.743Z,10.33
2018-04-07T09:49:08.943Z,10.60
2018-04-07T09:51:43.517Z,10.20
2018-04-07T09:54:24.433Z,11.27
2018-04-07T09:56:58.232Z,10.90
2018-04-07T09:59:34.437Z,12.07
2018-04-07T10:02:09.323Z,10.80
2018-04-07T10:04:43.519Z,11.00
2018-04-07T10:07:17.218Z,10.60
2018-04-07T10:09:52.176Z,10.60
2018-04-07T10:12:26.072Z,11.20
2018-04-07T10:15:00.893Z,10.73
2018-04-07T10:17:34.792Z,12.30
2018-04-07T10:20:09.537Z,10.53
2018-04-07T10:22:43.333Z,10.87
2018-04-07T10:25:17.244Z,10.70
2018-04-07T10:27:52.502Z,10.73
2018-04-07T10:30:26.475Z,11.17
2018-04-07T10:33:01.692Z,11.03
2018-04-07T10:35:36.063Z,10.47
2018-04-07T10:38:10.784Z,10.53
2018-04-07T10:40:44.696Z,10.50
2018-04-07T10:43:19.643Z,10.67
2018-04-07T10:45:54.208Z,10.00
2018-04-07T10:48:28.019Z,10.37
2018-04-07T10:51:02.335Z,10.10
2018-04-07T10:53:36.269Z,10.10
2018-04-07T10:56:10.513Z,9.80
2018-04-07T10:58:44.068Z,10.50
2018-04-07T11:01:18.895Z,10.77
2018-04-07T11:03:53.597Z,10.13
2018-04-07T11:06:28.132Z,10.10
2018-04-07T11:09:02.783Z,10.10
2018-04-07T11:11:37.792Z,10.67
2018-04-07T11:14:12.667Z,9.80
2018-04-07T11:16:46.318Z,10.13
2018-04-07T11:19:21.368Z,10.37
2018-04-07T11:21:55.174Z,9.40
2018-04-07T11:24:29.764Z,8.77
2018-04-07T11:27:03.905Z,9.33
2018-04-07T11:29:37.910Z,9.20
2018-04-07T11:32:12.729Z,10.47
2018-04-07T11:34:46.582Z,11.00
2018-04-07T11:37:20.454Z,10.03
2018-04-07T11:39:54.673Z,10.57
2018-04-07T11:42:28.666Z,9.27
2018-04-07T11:45:03.029Z,11.17
2018-04-07T11:47:37.709Z,9.87
2018-04-07T11:50:12.130Z,10.50
2018-04-07T11:52:46.524Z,9.53
2018-04-07T11:55:21.178Z,11.57
2018-04-07T11:57:56.492Z,10.17
2018-04-07T12:00:31.032Z,12.00
2018-04-07T12:03:05.644Z,10.20
2018-04-07T12:05:39.497Z,10.30
2018-04-07T12:08:14.280Z,10.57
2018-04-07T12:10:48.284Z,9.90
2018-04-07T12:13:23.643Z,9.80
2018-04-07T12:15:58.272Z,9.60
2018-04-07T12:18:33.009Z,9.27
2018-04-07T12:21:06.784Z,9.77
2018-04-07T12:23:42.148Z,9.30
2018-04-07T12:26:16.692Z,9.03
2018-04-07T12:28:51.411Z,8.57
2018-04-07T12:31:26.492Z,7.90
2018-04-07T12:34:00.866Z,5.80
2018-04-07T12:36:35.642Z,6.10
2018-04-07T12:39:09.572Z,7.87
2018-04-07T12:41:43.483Z,6.40
2018-04-07T12:44:18.394Z,6.50
2018-04-07T12:46:54.287Z,5.73
2018-04-07T12:49:29.861Z,5.70
2018-04-07T12:52:04.502Z,5.37
2018-04-07T12:54:39.306Z,5.47
2018-04-07T12:57:13.115Z,3.30
2018-04-07T12:59:46.896Z,3.37
2018-04-07T13:02:21.432Z,3.20
2018-04-07T13:04:56.379Z,3.20
2018-04-07T13:07:32.411Z,2.77
2018-04-07T13:10:05.963Z,2.73
2018-04-07T13:12:39.882Z,2.87
2018-04-07T13:15:15.743Z,2.40
2018-04-07T13:17:50.265Z,2.20
2018-04-07T13:20:24.998Z,2.63
2018-04-07T13:22:59.381Z,2.90
2018-04-07T13:25:33.362Z,2.97
2018-04-07T13:28:07.012Z,2.80
2018-04-07T13:30:42.849Z,2.97
2018-04-07T13:33:17.164Z,2.70
2018-04-07T13:35:51.901Z,2.33
2018-04-07T13:38:26.425Z,2.43
2018-04-07T13:41:00.797Z,2.20
2018-04-07T13:43:34.829Z,2.17
2018-04-07T13:46:11.202Z,2.97
2018-04-07T13:48:46.080Z,2.57
2018-04-07T13:51:20.883Z,2.10
2018-04-07T13:53:55.754Z,4.40
2018-04-07T13:56:29.909Z,3.20
2018-04-07T13:59:03.813Z,3.50
2018-04-07T14:01:37.793Z,2.40
2018-04-07T14:04:13.026Z,2.37
2018-04-07T14:06:47.362Z,2.57
2018-04-07T14:09:22.000Z,2.80
2018-04-07T14:11:56.173Z,3.30
2018-04-07T14:14:30.926Z,3.00
2018-04-07T14:17:05.668Z,3.40
2018-04-07T14:19:40.991Z,3.50
2018-04-07T14:22:15.322Z,3.23
2018-04-07T14:24:49.181Z,3.20
2018-04-07T14:27:23.824Z,3.13
2018-04-07T14:29:58.382Z,3.00
2018-04-07T14:32:33.129Z,3.73
2018-04-07T14:35:08.384Z,3.90
2018-04-07T14:37:42.308Z,4.93
2018-04-07T14:40:16.772Z,3.83
2018-04-07T14:42:51.474Z,4.00
2018-04-07T14:45:25.360Z,4.17
2018-04-07T14:47:59.820Z,4.33
2018-04-07T14:50:34.536Z,3.67
2018-04-07T14:53:08.929Z,4.87
2018-04-07T14:55:43.293Z,4.57
2018-04-07T14:58:17.716Z,4.63
2018-04-07T15:00:51.728Z,5.00
2018-04-07T15:03:25.307Z,4.57
2018-04-07T15:06:00.212Z,4.57
2018-04-07T15:08:34.861Z,5.13
2018-04-07T15:11:09.480Z,5.20
2018-04-07T15:13:44.643Z,4.50
2018-04-07T15:16:18.511Z,4.67
2018-04-07T15:18:53.550Z,5.17
2018-04-07T15:21:28.264Z,5.87
2018-04-07T15:24:02.694Z,5.33
2018-04-07T15:26:36.256Z,5.63
2018-04-07T15:29:10.089Z,5.27
2018-04-07T15:31:43.654Z,5.00
2018-04-07T15:34:17.244Z,5.57
2018-04-07T15:36:51.062Z,5.23
2018-04-07T15:39:24.793Z,4.90
2018-04-07T15:41:58.503Z,4.63
2018-04-07T15:44:32.099Z,5.03
2018-04-07T15:47:06.132Z,5.30
2018-04-07T15:49:39.819Z,4.73
2018-04-07T15:52:13.665Z,4.47
2018-04-07T15:54:47.220Z,4.97
2018-04-07T15:57:20.749Z,5.10
2018-04-07T15:59:54.428Z,4.77
2018-04-07T16:02:27.994Z,5.80
2018-04-07T16:05:01.888Z,5.40
2018-04-07T16:07:36.575Z,5.10
2018-04-07T16:10:11.584Z,6.40
2018-04-07T16:12:46.219Z,5.20
2018-04-07T16:15:20.548Z,5.30
2018-04-07T16:17:54.351Z,5.93
2018-04-07T16:20:31.672Z,5.47
2018-04-07T16:23:06.750Z,5.70
2018-04-07T16:25:41.171Z,6.70
2018-04-07T16:28:14.793Z,6.83
2018-04-07T16:30:50.469Z,6.27
2018-04-07T16:33:24.747Z,6.60
2018-04-07T16:35:58.748Z,7.77
2018-04-07T16:38:33.384Z,8.43
2018-04-07T16:41:07.804Z,9.60
2018-04-07T16:43:41.908Z,8.80
2018-04-07T16:46:16.554Z,8.23
2018-04-07T16:48:50.617Z,7.17
2018-04-07T16:51:24.570Z,6.77
2018-04-07T16:53:58.556Z,7.00
2018-04-07T16:56:32.366Z,6.77
2018-04-07T16:59:06.888Z,6.20
2018-04-07T17:01:40.604Z,7.20
2018-04-07T17:04:15.300Z,6.73
2018-04-07T17:06:49.729Z,7.40
2018-04-07T17:09:24.445Z,6.43
2018-04-07T17:11:59.286Z,7.07
2018-04-07T17:14:33.367Z,7.40
2018-04-07T17:17:08.150Z,7.47
2018-04-07T17:19:43.263Z,6.97
2018-04-07T17:22:17.157Z,6.87
2018-04-07T17:24:52.501Z,7.47
2018-04-07T17:27:27.042Z,8.27
2018-04-07T17:30:01.968Z,7.90
2018-04-07T17:32:37.098Z,8.40
2018-04-07T17:35:11.864Z,8.33
2018-04-07T17:37:45.752Z,8.20
2018-04-07T17:40:22.751Z,8.43
2018-04-07T17:42:56.517Z,8.57
2018-04-07T17:45:30.840Z,8.50
2018-04-07T17:48:05.362Z,9.17
2018-04-07T17:50:42.020Z,9.30
2018-04-07T17:53:16.641Z,9.50
2018-04-07T17:55:51.399Z,8.93
2018-04-07T17:58:25.700Z,8.70
2018-04-07T18:00:59.998Z,8.90
2018-04-07T18:03:34.318Z,8.60
2018-04-07T18:06:09.250Z,9.43
2018-04-07T18:08:43.149Z,10.97
2018-04-07T18:11:17.974Z,10.30
2018-04-07T18:13:52.960Z,9.97
2018-04-07T18:16:27.458Z,9.00
2018-04-07T18:19:02.777Z,8.50
2018-04-07T18:21:36.586Z,8.80
2018-04-07T18:24:11.735Z,7.70
2018-04-07T18:26:46.549Z,7.57
2018-04-07T18:29:20.876Z,7.53
2018-04-07T18:31:54.969Z,7.33
2018-04-07T18:34:28.789Z,7.47
2018-04-07T18:37:04.621Z,7.60
2018-04-07T18:39:38.860Z,7.90
2018-04-07T18:42:14.292Z,7.23
2018-04-07T18:44:49.515Z,7.47
2018-04-07T18:47:26.989Z,7.73
2018-04-07T18:50:02.993Z,7.50
2018-04-07T18:52:39.297Z,8.17
2018-04-07T18:55:14.884Z,12.50
2018-04-07T18:57:49.096Z,10.63
2018-04-07T19:00:23.245Z,11.10
2018-04-07T19:02:57.132Z,15.87
2018-04-07T19:05:31.055Z,10.13
2018-04-07T19:08:05.850Z,17.53
2018-04-07T19:10:39.887Z,13.67
2018-04-07T19:13:13.781Z,13.07
2018-04-07T19:15:48.930Z,10.53
2018-04-07T19:18:23.945Z,10.03
2018-04-07T19:20:59.488Z,10.00
2018-04-07T19:23:34.855Z,10.77
2018-04-07T19:26:08.599Z,11.03
2018-04-07T19:28:44.440Z,10.03
2018-04-07T19:31:19.623Z,10.13
2018-04-07T19:33:54.951Z,12.10
2018-04-07T19:36:31.424Z,11.20
2018-04-07T19:39:07.049Z,10.77
2018-04-07T19:41:43.092Z,10.97
2018-04-07T19:44:17.667Z,10.23
2018-04-07T19:46:52.892Z,10.57
2018-04-07T19:49:27.836Z,11.03
2018-04-07T19:52:01.784Z,10.70
2018-04-07T19:54:36.357Z,10.40
2018-04-07T19:57:11.949Z,10.90
2018-04-07T19:59:45.825Z,11.80
2018-04-07T20:02:20.838Z,12.00
2018-04-07T20:04:56.352Z,11.27
2018-04-07T20:07:31.106Z,10.27
2018-04-07T20:10:06.038Z,10.07
2018-04-07T20:12:42.521Z,10.37
2018-04-07T20:15:16.519Z,10.23
2018-04-07T20:17:52.440Z,10.97
2018-04-07T20:20:29.419Z,11.93
2018-04-07T20:23:04.137Z,11.93
2018-04-07T20:25:38.055Z,11.90
2018-04-07T20:28:12.916Z,11.57
2018-04-07T20:30:48.079Z,10.57
2018-04-07T20:33:22.888Z,10.40
2018-04-07T20:35:58.046Z,10.10
2018-04-07T20:38:32.643Z,12.63
2018-04-07T20:41:06.760Z,12.73
2018-04-07T20:43:42.804Z,12.83
2018-04-07T20:46:17.526Z,12.07
2018-04-07T20:48:52.459Z,11.57
2018-04-07T20:51:28.596Z,11.03
2018-04-07T20:54:04.577Z,10.43
2018-04-07T20:56:45.575Z,10.77
2018-04-07T20:59:24.157Z,10.93
2018-04-07T21:01:58.295Z,11.47
2018-04-07T21:04:33.527Z,11.43
2018-04-07T21:07:08.321Z,11.57
2018-04-07T21:09:42.998Z,10.23
2018-04-07T21:12:16.869Z,11.07
2018-04-07T21:14:57.838Z,11.30
2018-04-07T21:17:33.827Z,12.70
2018-04-07T21:20:07.610Z,14.00
2018-04-07T21:22:44.576Z,12.07
2018-04-07T21:25:18.504Z,13.07
2018-04-07T21:27:53.535Z,12.03
2018-04-07T21:30:27.954Z,11.60
2018-04-07T21:33:02.756Z,11.87
2018-04-07T21:35:37.274Z,11.73
2018-04-07T21:38:12.011Z,11.63
2018-04-07T21:40:45.699Z,11.43
2018-04-07T21:43:20.143Z,11.77
2018-04-07T21:45:54.777Z,11.80
2018-04-07T21:48:30.543Z,12.30
2018-04-07T21:51:04.964Z,12.03
2018-04-07T21:53:38.761Z,11.57
2018-04-07T21:56:13.657Z,12.47
2018-04-07T21:58:47.490Z,12.13
2018-04-07T22:01:22.237Z,11.33
2018-04-07T22:03:56.617Z,11.33
2018-04-07T22:06:31.619Z,11.03
2018-04-07T22:09:06.397Z,11.10
2018-04-07T22:11:40.274Z,11.87
2018-04-07T22:14:14.602Z,12.30
2018-04-07T22:16:49.241Z,11.83
2018-04-07T22:19:23.856Z,12.03
2018-04-07T22:21:57.763Z,12.07
2018-04-07T22:24:31.347Z,11.80
2018-04-07T22:27:05.460Z,11.43
2018-04-07T22:29:41.666Z,11.60
2018-04-07T22:32:16.230Z,12.37
2018-04-07T22:34:50.149Z,12.33
2018-04-07T22:37:24.756Z,12.63
2018-04-07T22:39:58.465Z,12.70
2018-04-07T22:42:32.604Z,11.93
2018-04-07T22:45:07.516Z,12.23
2018-04-07T22:47:41.433Z,13.03
2018-04-07T22:50:15.270Z,13.17
2018-04-07T22:52:49.989Z,12.50
2018-04-07T22:55:24.661Z,13.03
2018-04-07T22:57:58.658Z,12.63
2018-04-07T23:00:33.120Z,11.97
2018-04-07T23:03:07.812Z,11.97
2018-04-07T23:05:42.268Z,14.33
2018-04-07T23:08:16.072Z,13.40
2018-04-07T23:10:49.980Z,13.10
2018-04-07T23:13:23.945Z,13.67
2018-04-07T23:15:58.073Z,13.53
2018-04-07T23:18:32.182Z,12.87
2018-04-07T23:21:06.030Z,12.17
2018-04-07T23:23:40.822Z,12.20
2018-04-07T23:26:15.170Z,12.30
2018-04-07T23:28:50.172Z,12.00
2018-04-07T23:31:24.207Z,15.27
2018-04-07T23:33:58.127Z,15.20
2018-04-07T23:36:32.604Z,14.60
2018-04-07T23:39:06.304Z,13.53
2018-04-07T23:41:39.929Z,13.70
2018-04-07T23:44:14.653Z,14.10
2018-04-07T23:46:48.513Z,14.33
2018-04-07T23:49:22.678Z,14.33
2018-04-07T23:51:56.734Z,14.27
2018-04-07T23:54:31.420Z,13.73
2018-04-07T23:57:06.012Z,13.43
2018-04-07T23:59:39.873Z,13.97
